createdAt,value
2022-08-17T00:01:24.747Z,99790.77
2022-08-17T00:03:55.876Z,99792.97
2022-08-17T00:06:28.211Z,99796.02
2022-08-17T00:09:03.319Z,99792.10
2022-08-17T00:11:37.851Z,99798.20
2022-08-17T00:14:11.048Z,99794.01
2022-08-17T00:16:55.620Z,99796.19
2022-08-17T00:19:18.598Z,99801.45
2022-08-17T00:22:31.423Z,99789.20
2022-08-17T00:24:21.209Z,99795.58
2022-08-17T00:26:50.092Z,99787.23
2022-08-17T00:29:20.335Z,99794.97
2022-08-17T00:31:49.800Z,99791.07
2022-08-17T00:34:21.584Z,99791.05
2022-08-17T00:36:50.506Z,99798.55
2022-08-17T00:39:20.271Z,99808.00
2022-08-17T00:41:50.029Z,99799.67
2022-08-17T00:44:18.952Z,99802.42
2022-08-17T00:46:48.579Z,99799.90
2022-08-17T00:49:19.574Z,99798.50
2022-08-17T00:51:56.131Z,99803.20
2022-08-17T00:54:41.909Z,99800.98
2022-08-17T00:57:16.862Z,99796.84
2022-08-17T01:00:02.677Z,99794.08
2022-08-17T01:02:24.477Z,99796.04
2022-08-17T01:04:54.019Z,99784.34
2022-08-17T01:07:23.755Z,99784.34
2022-08-17T01:09:53.043Z,99785.19
2022-08-17T01:12:22.714Z,99784.34
2022-08-17T01:14:53.211Z,99776.57
2022-08-17T01:17:22.682Z,99776.83
2022-08-17T01:19:52.088Z,99779.55
2022-08-17T01:22:23.442Z,99780.92
2022-08-17T01:25:00.978Z,99778.41
2022-08-17T01:27:30.288Z,99780.31
2022-08-17T01:30:02.450Z,99786.11
2022-08-17T01:32:32.123Z,99779.99
2022-08-17T01:35:01.200Z,99779.14
2022-08-17T01:37:35.055Z,99782.17
2022-08-17T01:40:27.682Z,99788.23
2022-08-17T01:43:01.924Z,99777.11
2022-08-17T01:45:33.618Z,99775.70
2022-08-17T01:48:03.188Z,99771.25
2022-08-17T01:50:34.804Z,99772.36
2022-08-17T01:53:08.409Z,99772.34
2022-08-17T01:55:53.844Z,99771.21
2022-08-17T01:58:24.044Z,99769.54
2022-08-17T02:01:00.875Z,99764.52
2022-08-17T02:03:25.940Z,99759.23
2022-08-17T02:05:55.440Z,99760.88
2022-08-17T02:08:37.352Z,99761.95
2022-08-17T02:10:55.781Z,99760.02
2022-08-17T02:13:28.146Z,99759.18
2022-08-17T02:15:58.066Z,99761.66
2022-08-17T02:18:27.836Z,99755.81
2022-08-17T02:20:58.024Z,99765.52
2022-08-17T02:23:28.879Z,99766.05
2022-08-17T02:25:59.460Z,99756.05
2022-08-17T02:28:29.309Z,99753.56
2022-08-17T02:31:03.031Z,99756.05
2022-08-17T02:33:42.645Z,99757.13
2022-08-17T02:36:05.019Z,99757.68
2022-08-17T02:38:35.252Z,99760.73
2022-08-17T02:41:04.424Z,99758.54
2022-08-17T02:43:33.713Z,99762.72
2022-08-17T02:46:02.758Z,99763.30
2022-08-17T02:48:32.311Z,99763.84
2022-08-17T02:51:01.631Z,99763.84
2022-08-17T02:53:36.123Z,99766.88
2022-08-17T02:56:02.306Z,99762.44
2022-08-17T02:58:35.377Z,99760.73
2022-08-17T03:01:08.861Z,99758.23
2022-08-17T03:03:38.527Z,99757.34
2022-08-17T03:06:09.765Z,99758.49
2022-08-17T03:08:40.711Z,99756.03
2022-08-17T03:11:10.410Z,99755.77
2022-08-17T03:13:40.892Z,99743.58
2022-08-17T03:16:10.236Z,99750.81
2022-08-17T03:18:42.155Z,99757.48
2022-08-17T03:21:12.526Z,99757.20
2022-08-17T03:23:42.104Z,99749.16
2022-08-17T03:26:15.580Z,99748.08
2022-08-17T03:28:43.993Z,99748.39
2022-08-17T03:31:13.813Z,99738.97
2022-08-17T03:33:43.705Z,99749.53
2022-08-17T03:36:13.579Z,99738.98
2022-08-17T03:38:42.455Z,99743.98
2022-08-17T03:41:13.778Z,99740.39
2022-08-17T03:43:42.963Z,99740.14
2022-08-17T03:46:35.188Z,99744.61
2022-08-17T03:49:22.243Z,99761.02
2022-08-17T03:52:10.342Z,99751.85
2022-08-17T03:54:58.411Z,99759.09
2022-08-17T03:57:27.712Z,99759.09
2022-08-17T03:59:56.696Z,99763.02
2022-08-17T04:02:31.405Z,99759.43
2022-08-17T04:05:01.486Z,99756.37
2022-08-17T04:07:31.695Z,99751.92
2022-08-17T04:10:02.053Z,99758.31
2022-08-17T04:12:43.748Z,99759.98
2022-08-17T04:15:14.111Z,99756.12
2022-08-17T04:17:44.788Z,99750.89
2022-08-17T04:20:16.050Z,99749.81
2022-08-17T04:23:09.286Z,99753.73
2022-08-17T04:25:41.848Z,99752.95
2022-08-17T04:28:16.199Z,99749.95
2022-08-17T04:30:42.096Z,99744.98
2022-08-17T04:33:18.165Z,99742.80
2022-08-17T04:35:51.553Z,99736.17
2022-08-17T04:38:24.513Z,99735.37
2022-08-17T04:41:12.033Z,99733.17
2022-08-17T04:43:41.891Z,99727.91
2022-08-17T04:46:16.539Z,99731.55
2022-08-17T04:48:52.417Z,99725.17
2022-08-17T04:51:28.057Z,99720.74
2022-08-17T04:54:02.661Z,99724.16
2022-08-17T04:56:33.078Z,99725.56
2022-08-17T04:59:09.381Z,99721.41
2022-08-17T05:01:40.238Z,99723.65
2022-08-17T05:04:32.778Z,99724.78
2022-08-17T05:06:44.098Z,99723.41
2022-08-17T05:09:13.961Z,99734.81
2022-08-17T05:11:44.968Z,99725.36
2022-08-17T05:14:15.471Z,99727.59
2022-08-17T05:16:45.789Z,99727.88
2022-08-17T05:19:17.043Z,99732.89
2022-08-17T05:21:46.970Z,99728.20
2022-08-17T05:24:43.119Z,99735.16
2022-08-17T05:26:51.111Z,99737.94
2022-08-17T05:29:21.932Z,99734.87
2022-08-17T05:31:53.912Z,99734.60
2022-08-17T05:34:23.094Z,99732.97
2022-08-17T05:36:52.909Z,99743.81
2022-08-17T05:39:23.308Z,99736.30
2022-08-17T05:41:53.394Z,99738.25
2022-08-17T05:44:23.378Z,99742.70
2022-08-17T05:46:52.349Z,99732.39
2022-08-17T05:49:27.606Z,99736.00
2022-08-17T05:52:11.490Z,99743.52
2022-08-17T05:55:19.735Z,99735.16
2022-08-17T05:58:14.206Z,99740.72
2022-08-17T06:01:05.005Z,99739.08
2022-08-17T06:04:03.164Z,99742.41
2022-08-17T06:06:48.016Z,99742.13
2022-08-17T06:09:33.976Z,99750.19
2022-08-17T06:12:42.258Z,99747.39
2022-08-17T06:15:54.651Z,99752.66
2022-08-17T06:18:27.214Z,99750.41
2022-08-17T06:21:03.306Z,99755.13
2022-08-17T06:23:39.674Z,99751.80
2022-08-17T06:26:20.516Z,99744.53
2022-08-17T06:28:59.203Z,99747.86
2022-08-17T06:31:32.594Z,99745.61
2022-08-17T06:34:03.324Z,99747.83
2022-08-17T06:36:57.928Z,99742.75
2022-08-17T06:40:03.757Z,99748.17
2022-08-17T06:43:05.578Z,99749.03
2022-08-17T06:45:43.680Z,99750.81
2022-08-17T06:48:22.738Z,99748.27
2022-08-17T06:50:58.539Z,99748.20
2022-08-17T06:54:05.145Z,99744.15
2022-08-17T06:56:55.395Z,99731.69
2022-08-17T06:59:47.181Z,99745.42
2022-08-17T07:02:05.683Z,99737.48
2022-08-17T07:04:35.222Z,99739.53
2022-08-17T07:07:26.946Z,99744.77
2022-08-17T07:09:59.764Z,99750.50
2022-08-17T07:12:34.203Z,99749.95
2022-08-17T07:15:21.493Z,99742.83
2022-08-17T07:17:52.147Z,99744.78
2022-08-17T08:21:48.757Z,99732.70
2022-08-17T08:24:26.223Z,99737.39
2022-08-17T08:27:09.191Z,99732.49
2022-08-17T08:30:03.762Z,99730.95
2022-08-17T08:32:46.415Z,99734.69
2022-08-17T08:35:39.868Z,99730.14
2022-08-17T08:38:36.160Z,99734.16
2022-08-17T08:41:26.407Z,99728.88
2022-08-17T08:45:00.207Z,99726.61
2022-08-17T08:47:10.829Z,99726.72
2022-08-17T08:50:37.199Z,99721.06
2022-08-17T08:53:26.994Z,99724.21
2022-08-17T08:56:14.971Z,99723.36
2022-08-17T08:58:52.018Z,99721.38
2022-08-17T09:01:41.747Z,99722.91
2022-08-17T09:04:29.975Z,99714.91
2022-08-17T09:07:08.094Z,99714.42
2022-08-17T09:09:54.180Z,99719.33
2022-08-17T09:12:38.003Z,99725.67
2022-08-17T09:15:29.436Z,99729.64
2022-08-17T09:19:02.303Z,99725.27
2022-08-17T09:21:07.882Z,99722.73
2022-08-17T09:23:49.411Z,99722.25
2022-08-17T09:26:26.038Z,99730.62
2022-08-17T09:29:01.718Z,99722.27
2022-08-17T09:31:46.315Z,99725.33
2022-08-17T09:34:16.376Z,99726.69
2022-08-17T09:36:59.978Z,99729.52
2022-08-17T09:39:37.216Z,99720.69
2022-08-17T09:42:33.476Z,99722.22
2022-08-17T09:45:26.421Z,99717.44
2022-08-17T09:48:12.053Z,99705.75
2022-08-17T09:51:04.727Z,99717.20
2022-08-17T09:53:26.723Z,99722.11
2022-08-17T09:56:36.541Z,99715.73
2022-08-17T09:59:44.776Z,99711.50
2022-08-17T10:02:45.487Z,99702.80
2022-08-17T10:05:30.741Z,99706.36
2022-08-17T10:08:09.048Z,99707.34
2022-08-17T10:11:33.485Z,99706.08
2022-08-17T10:14:36.972Z,99699.62
2022-08-17T10:16:48.762Z,99700.20
2022-08-17T10:19:35.400Z,99696.80
2022-08-17T10:22:37.781Z,99702.02
2022-08-17T10:25:27.792Z,99696.48
2022-08-17T10:27:58.852Z,99690.69
2022-08-17T10:30:31.077Z,99697.83
2022-08-17T10:33:05.842Z,99691.20
2022-08-17T10:35:42.487Z,99694.53
2022-08-17T10:38:46.322Z,99695.61
2022-08-17T10:41:47.118Z,99697.27
2022-08-17T10:44:48.928Z,99696.59
2022-08-17T10:47:19.387Z,99696.59
2022-08-17T10:49:50.909Z,99698.48
2022-08-17T10:52:34.170Z,99695.34
2022-08-17T10:55:11.277Z,99696.98
2022-08-17T10:57:46.005Z,99693.27
2022-08-17T11:00:29.401Z,99688.95
2022-08-17T11:02:58.515Z,99689.13
2022-08-17T11:06:01.812Z,99688.37
2022-08-17T11:09:03.302Z,99688.37
2022-08-17T11:12:00.387Z,99685.14
2022-08-17T11:14:51.216Z,99682.91
2022-08-17T11:17:44.577Z,99680.67
2022-08-17T11:20:54.957Z,99680.67
2022-08-17T11:23:48.891Z,99679.27
2022-08-17T11:26:32.241Z,99667.06
2022-08-17T11:29:09.562Z,99665.56
2022-08-17T11:31:43.993Z,99666.31
2022-08-17T11:34:23.525Z,99663.66
2022-08-17T11:37:28.740Z,99671.27
2022-08-17T11:40:30.568Z,99669.37
2022-08-17T11:43:28.423Z,99662.08
2022-08-17T11:46:21.161Z,99652.31
2022-08-17T11:49:25.907Z,99662.09
2022-08-17T11:52:07.754Z,99650.28
2022-08-17T11:54:46.237Z,99649.36
2022-08-17T11:57:45.234Z,99650.59
2022-08-17T12:00:45.247Z,99650.93
2022-08-17T12:03:34.925Z,99648.69
2022-08-17T12:06:35.174Z,99648.44
2022-08-17T12:09:24.515Z,99645.05
2022-08-17T12:12:11.927Z,99641.48
2022-08-17T12:15:08.370Z,99640.99
2022-08-17T12:17:14.427Z,99640.00
2022-08-17T12:19:45.049Z,99638.19
2022-08-17T12:22:32.178Z,99634.54
2022-08-17T12:25:30.601Z,99630.23
2022-08-17T12:28:06.871Z,99633.05
2022-08-17T12:30:31.200Z,99624.02
2022-08-17T12:33:00.391Z,99627.75
2022-08-17T12:35:34.949Z,99625.42
2022-08-17T12:38:07.338Z,99631.47
2022-08-17T12:40:38.823Z,99634.42
2022-08-17T12:43:21.047Z,99638.65
2022-08-17T12:46:01.190Z,99646.60
2022-08-17T12:48:34.329Z,99638.81
2022-08-17T12:51:05.772Z,99639.64
2022-08-17T12:53:36.296Z,99649.42
2022-08-17T12:56:11.738Z,99640.23
2022-08-17T12:58:48.853Z,99640.39
2022-08-17T13:01:17.792Z,99646.68
2022-08-17T13:03:50.216Z,99646.11
2022-08-17T13:06:33.162Z,99646.68
2022-08-17T13:09:11.399Z,99646.19
2022-08-17T13:11:52.930Z,99647.02
2022-08-17T13:14:22.321Z,99652.06
2022-08-17T13:16:58.713Z,99649.25
2022-08-17T13:19:40.498Z,99647.59
2022-08-17T13:22:02.011Z,99641.72
2022-08-17T13:24:37.932Z,99648.17
2022-08-17T13:27:12.915Z,99650.66
2022-08-17T13:29:51.510Z,99649.50
2022-08-17T13:32:35.908Z,99645.52
2022-08-17T13:35:47.089Z,99651.16
2022-08-17T13:38:47.487Z,99652.23
2022-08-17T13:41:34.657Z,99661.01
2022-08-17T13:44:25.993Z,99656.54
2022-08-17T13:46:57.273Z,99666.89
2022-08-17T13:49:41.937Z,99657.20
2022-08-17T13:51:59.289Z,99664.16
2022-08-17T13:54:36.818Z,99657.37
2022-08-17T13:57:22.728Z,99657.37
2022-08-17T13:59:55.974Z,99650.33
2022-08-17T14:02:27.744Z,99652.31
2022-08-17T14:04:55.822Z,99650.08
2022-08-17T14:07:33.780Z,99652.89
2022-08-17T14:10:17.288Z,99650.33
2022-08-17T14:12:50.170Z,99648.59
2022-08-17T14:15:23.260Z,99650.49
2022-08-17T14:17:52.319Z,99650.16
2022-08-17T14:20:22.400Z,99645.36
2022-08-17T14:22:53.518Z,99650.41
2022-08-17T14:25:26.814Z,99652.65
2022-08-17T14:27:57.918Z,99662.70
2022-08-17T14:30:28.999Z,99662.70
2022-08-17T14:32:59.753Z,99660.27
2022-08-17T14:35:29.473Z,99656.79
2022-08-17T14:37:58.820Z,99662.25
2022-08-17T14:40:27.818Z,99663.16
2022-08-17T14:42:57.840Z,99674.75
2022-08-17T14:45:32.486Z,99670.03
2022-08-17T14:47:58.297Z,99670.11
2022-08-17T14:50:27.219Z,99668.54
2022-08-17T14:52:57.988Z,99672.59
2022-08-17T14:55:27.207Z,99680.20
2022-08-17T14:57:56.538Z,99686.16
2022-08-17T15:00:26.606Z,99689.23
2022-08-17T15:02:58.663Z,99689.81
2022-08-17T15:05:31.976Z,99686.25
2022-08-17T15:08:02.243Z,99684.91
2022-08-17T15:10:31.244Z,99679.34
2022-08-17T15:13:00.219Z,99678.50
2022-08-17T15:15:29.645Z,99674.81
2022-08-17T15:17:59.512Z,99674.73
2022-08-17T15:20:29.557Z,99678.88
2022-08-17T15:22:58.913Z,99678.80
2022-08-17T15:25:31.475Z,99674.00
2022-08-17T15:28:00.576Z,99685.01
2022-08-17T15:30:29.418Z,99677.72
2022-08-17T15:32:58.903Z,99674.41
2022-08-17T15:35:31.671Z,99670.77
2022-08-17T15:38:10.165Z,99665.13
2022-08-17T15:40:38.683Z,99667.20
2022-08-17T15:43:11.998Z,99660.74
2022-08-17T15:45:41.610Z,99662.45
2022-08-17T15:48:11.129Z,99668.73
2022-08-17T15:50:40.358Z,99670.47
2022-08-17T15:53:09.719Z,99671.38
2022-08-17T15:55:39.603Z,99670.88
2022-08-17T15:58:09.701Z,99673.19
2022-08-17T16:00:53.124Z,99675.50
2022-08-17T16:03:45.812Z,99682.94
2022-08-17T16:05:41.061Z,99682.69
2022-08-17T16:08:10.980Z,99683.84
2022-08-17T16:10:40.437Z,99683.34
2022-08-17T16:13:17.442Z,99681.44
2022-08-17T16:15:42.930Z,99685.41
2022-08-17T16:18:12.360Z,99687.14
2022-08-17T16:20:41.689Z,99682.71
2022-08-17T16:23:16.050Z,99693.21
2022-08-17T16:25:53.066Z,99698.33
2022-08-17T16:28:17.239Z,99693.94
2022-08-17T16:30:46.658Z,99685.82
2022-08-17T16:33:16.894Z,99689.54
2022-08-17T16:35:46.810Z,99692.17
2022-08-17T16:38:15.959Z,99692.25
2022-08-17T16:40:45.668Z,99695.70
2022-08-17T16:43:16.705Z,99689.08
2022-08-17T16:45:51.843Z,99695.34
2022-08-17T16:48:18.339Z,99696.58
2022-08-17T16:50:59.957Z,99705.88
2022-08-17T16:53:20.023Z,99707.93
2022-08-17T16:55:49.509Z,99705.44
2022-08-17T16:58:18.438Z,99707.50
2022-08-17T17:00:48.734Z,99703.92
2022-08-17T17:03:24.499Z,99707.31
2022-08-17T17:06:13.437Z,99709.94
2022-08-17T17:08:59.982Z,99703.87
2022-08-17T17:11:42.276Z,99709.13
2022-08-17T17:14:21.754Z,99705.84
2022-08-17T17:17:06.032Z,99708.79
2022-08-17T17:19:43.017Z,99711.73
2022-08-17T17:22:40.120Z,99710.20
2022-08-17T17:25:15.445Z,99703.70
2022-08-17T17:28:29.489Z,99703.70
2022-08-17T17:31:09.437Z,99709.70
2022-08-17T17:33:55.456Z,99703.67
2022-08-17T17:36:50.622Z,99710.56
2022-08-17T17:39:24.580Z,99711.83
2022-08-17T17:41:58.599Z,99706.59
2022-08-17T17:44:32.479Z,99710.61
2022-08-17T17:47:02.559Z,99716.30
2022-08-17T17:49:36.986Z,99712.20
2022-08-17T17:52:18.910Z,99718.42
2022-08-17T17:54:54.010Z,99721.86
2022-08-17T17:58:04.517Z,99721.09
2022-08-17T18:00:50.987Z,99716.73
2022-08-17T18:03:50.480Z,99724.39
2022-08-17T18:06:45.247Z,99726.99
2022-08-17T18:09:35.028Z,99730.17
2022-08-17T18:12:15.774Z,99728.56
2022-08-17T18:15:21.959Z,99724.16
2022-08-17T18:18:20.291Z,99721.66
2022-08-17T18:20:53.812Z,99718.63
2022-08-17T18:23:27.608Z,99722.62
2022-08-17T18:25:56.340Z,99718.80
2022-08-17T18:28:35.757Z,99723.05
2022-08-17T18:31:20.055Z,99724.77
2022-08-17T18:33:52.293Z,99716.16
2022-08-17T18:36:31.613Z,99719.89
2022-08-17T18:39:11.900Z,99717.77
2022-08-17T18:41:43.947Z,99724.86
2022-08-17T18:44:29.445Z,99721.84
2022-08-17T18:47:18.248Z,99723.88
2022-08-17T18:50:03.130Z,99726.52
2022-08-17T18:52:33.259Z,99716.81
2022-08-17T18:55:20.236Z,99707.62
2022-08-17T18:57:57.309Z,99709.33
2022-08-17T19:00:41.618Z,99710.78
2022-08-17T19:03:24.895Z,99708.59
2022-08-17T19:05:59.668Z,99708.96
2022-08-17T19:08:33.599Z,99711.83
2022-08-17T19:11:24.844Z,99708.81
2022-08-17T19:14:07.680Z,99711.41
2022-08-17T19:16:50.892Z,99711.98
2022-08-17T19:19:24.309Z,99713.43
2022-08-17T19:21:59.149Z,99717.11
2022-08-17T19:24:30.726Z,99713.52
2022-08-17T19:27:20.646Z,99708.28
2022-08-17T19:30:08.127Z,99711.95
2022-08-17T19:32:36.381Z,99709.20
2022-08-17T19:35:07.302Z,99705.32
2022-08-17T19:37:44.684Z,99709.05
2022-08-17T19:40:52.874Z,99711.68
2022-08-17T19:43:31.936Z,99705.29
2022-08-17T19:46:23.807Z,99704.50
2022-08-17T19:49:33.225Z,99702.84
2022-08-17T19:52:26.403Z,99701.48
2022-08-17T19:55:18.286Z,99699.87
2022-08-17T19:58:20.505Z,99701.40
2022-08-17T20:00:53.010Z,99700.91
2022-08-17T20:03:26.218Z,99700.97
2022-08-17T20:06:12.607Z,99705.48
2022-08-17T20:08:52.743Z,99712.25
2022-08-17T20:11:34.855Z,99707.00
2022-08-17T20:14:09.982Z,99702.84
2022-08-17T20:16:39.198Z,99698.42
2022-08-17T20:19:35.552Z,99699.03
2022-08-17T20:22:19.352Z,99699.91
2022-08-17T20:25:03.115Z,99701.31
2022-08-17T20:27:35.270Z,99696.02
2022-08-17T20:30:12.241Z,99699.95
2022-08-17T20:32:56.988Z,99703.88
2022-08-17T20:35:38.288Z,99700.56
2022-08-17T20:38:15.533Z,99703.36
2022-08-17T20:41:08.287Z,99695.53
2022-08-17T20:43:43.006Z,99690.20
2022-08-17T20:46:20.219Z,99689.37
2022-08-17T20:48:50.656Z,99693.03
2022-08-17T20:51:31.190Z,99702.00
2022-08-17T20:54:20.825Z,99707.90
2022-08-17T20:56:52.046Z,99704.84
2022-08-17T20:59:31.165Z,99705.97
2022-08-17T21:02:18.956Z,99707.37
2022-08-17T21:04:56.484Z,99702.38
2022-08-17T21:07:33.090Z,99706.05
2022-08-17T21:10:19.286Z,99703.28
2022-08-17T21:13:15.911Z,99703.06
2022-08-17T21:16:01.571Z,99703.13
2022-08-17T21:18:45.849Z,99701.31
2022-08-17T21:21:52.292Z,99701.69
2022-08-17T21:24:56.015Z,99710.98
2022-08-17T21:27:36.458Z,99713.52
2022-08-17T21:30:17.349Z,99713.58
2022-08-17T21:32:47.619Z,99714.75
2022-08-17T21:35:28.142Z,99716.48
2022-08-17T21:38:03.720Z,99720.41
2022-08-17T21:40:34.736Z,99721.83
2022-08-17T21:43:29.285Z,99720.47
2022-08-17T21:46:24.847Z,99725.52
2022-08-17T21:48:54.684Z,99726.13
2022-08-17T21:51:27.308Z,99719.99
2022-08-17T21:54:02.025Z,99721.69
2022-08-17T21:56:37.558Z,99722.25
2022-08-17T21:59:11.036Z,99722.82
2022-08-17T22:01:41.298Z,99714.70
2022-08-17T22:04:22.392Z,99725.05
2022-08-17T22:06:57.085Z,99725.91
2022-08-17T22:09:29.313Z,99718.92
2022-08-17T22:12:20.111Z,99711.41
2022-08-17T22:15:05.979Z,99710.30
2022-08-17T22:17:40.917Z,99712.86
2022-08-17T22:20:20.074Z,99713.13
2022-08-17T22:23:12.884Z,99710.03
2022-08-17T22:26:06.299Z,99717.56
2022-08-17T22:28:52.219Z,99718.13
2022-08-17T22:31:30.155Z,99724.28
2022-08-17T22:34:04.706Z,99711.70
2022-08-17T22:36:39.223Z,99713.96
2022-08-17T22:39:13.622Z,99718.75
2022-08-17T22:41:57.163Z,99719.91
2022-08-17T22:44:40.161Z,99726.63
2022-08-17T22:47:21.390Z,99727.22
2022-08-17T22:50:00.278Z,99729.50
2022-08-17T22:52:58.610Z,99732.63
2022-08-17T22:55:48.263Z,99731.55
2022-08-17T22:58:39.079Z,99737.99
2022-08-17T23:01:31.736Z,99736.36
2022-08-17T23:04:08.095Z,99734.16
2022-08-17T23:06:42.005Z,99732.20
2022-08-17T23:09:11.043Z,99731.69
2022-08-17T23:11:49.391Z,99729.22
2022-08-17T23:14:22.539Z,99734.23
2022-08-17T23:16:52.697Z,99739.02
2022-08-17T23:19:22.291Z,99741.81
2022-08-17T23:21:52.594Z,99738.72
2022-08-17T23:24:25.575Z,99735.09
2022-08-17T23:26:57.043Z,99742.08
2022-08-17T23:29:28.619Z,99742.91
2022-08-17T23:31:59.517Z,99738.43
2022-08-17T23:34:28.818Z,99740.09
2022-08-17T23:36:58.585Z,99741.78
2022-08-17T23:39:29.159Z,99736.49
2022-08-17T23:41:59.525Z,99740.41
2022-08-17T23:44:31.231Z,99743.77
2022-08-17T23:47:02.560Z,99744.33
2022-08-17T23:49:32.274Z,99738.77
2022-08-17T23:52:02.881Z,99745.50
2022-08-17T23:54:43.776Z,99748.30
2022-08-17T23:57:19.377Z,99748.30
2022-08-17T23:59:50.201Z,99749.42
